createdAt,value
2018-12-31T00:00:48.658Z,23.17
2018-12-31T00:01:58.139Z,23.13
2018-12-31T00:03:07.372Z,23.15
2018-12-31T00:04:16.123Z,23.13
2018-12-31T00:05:25.813Z,23.13
2018-12-31T00:06:35.255Z,23.09
2018-12-31T00:07:44.472Z,23.07
2018-12-31T00:08:54.067Z,23.17
2018-12-31T00:10:03.599Z,23.09
2018-12-31T00:11:12.826Z,23.02
2018-12-31T00:12:22.308Z,23.05
2018-12-31T00:13:31.775Z,23.09
2018-12-31T00:14:41.243Z,23.01
2018-12-31T00:15:50.191Z,23.01
2018-12-31T00:16:58.869Z,23
2018-12-31T00:18:08.318Z,23.05
2018-12-31T00:19:17.320Z,23.01
2018-12-31T00:20:26.847Z,23.09
2018-12-31T00:21:36.546Z,23.05
2018-12-31T00:22:46.671Z,23
2018-12-31T00:23:56.107Z,23.09
2018-12-31T00:25:05.306Z,23.05
2018-12-31T00:26:14.795Z,23
2018-12-31T00:27:24.295Z,23
2018-12-31T00:28:33.477Z,23.02
2018-12-31T00:29:42.916Z,22.97
2018-12-31T00:30:52.403Z,22.97
2018-12-31T00:32:01.592Z,22.98
2018-12-31T00:33:10.780Z,22.97
2018-12-31T00:34:19.982Z,22.95
2018-12-31T00:35:29.215Z,22.94
2018-12-31T00:36:38.409Z,22.91
2018-12-31T00:37:47.840Z,22.98
2018-12-31T00:38:56.817Z,22.94
2018-12-31T00:40:07.146Z,22.91
2018-12-31T00:41:16.331Z,22.95
2018-12-31T00:42:25.320Z,22.88
2018-12-31T00:43:34.755Z,22.92
2018-12-31T00:44:44.190Z,22.98
2018-12-31T00:45:53.611Z,22.9
2018-12-31T00:47:03.060Z,22.88
2018-12-31T00:48:12.506Z,22.91
2018-12-31T00:49:21.707Z,22.98
2018-12-31T00:50:31.589Z,22.85
2018-12-31T00:51:41.528Z,22.92
2018-12-31T00:52:50.776Z,22.91
2018-12-31T00:54:00.229Z,22.91
2018-12-31T00:55:09.429Z,22.86
2018-12-31T00:56:18.884Z,22.88
2018-12-31T00:57:28.357Z,22.86
2018-12-31T00:58:37.816Z,22.85
2018-12-31T00:59:46.759Z,22.83
2018-12-31T01:00:56.188Z,22.82
2018-12-31T01:02:05.380Z,22.82
2018-12-31T01:03:15.086Z,22.88
2018-12-31T01:04:24.261Z,22.8
2018-12-31T01:05:33.689Z,22.85
2018-12-31T01:06:43.117Z,22.82
2018-12-31T01:07:52.300Z,22.79
2018-12-31T01:09:01.268Z,22.79
2018-12-31T01:10:10.718Z,22.85
2018-12-31T01:11:20.414Z,22.79
2018-12-31T01:12:29.107Z,22.77
2018-12-31T01:13:38.046Z,22.79
2018-12-31T01:14:46.741Z,22.85
2018-12-31T01:15:56.186Z,22.77
2018-12-31T01:17:05.429Z,22.79
2018-12-31T01:18:14.890Z,22.76
2018-12-31T01:19:24.335Z,22.72
2018-12-31T01:20:33.769Z,22.76
2018-12-31T01:21:43.256Z,22.8
2018-12-31T01:22:52.706Z,22.8
2018-12-31T01:24:02.135Z,22.82
2018-12-31T01:25:11.889Z,22.79
2018-12-31T01:26:21.347Z,22.79
2018-12-31T01:27:30.606Z,22.8
2018-12-31T01:28:40.039Z,22.73
2018-12-31T01:29:48.977Z,22.73
2018-12-31T01:30:58.701Z,22.79
2018-12-31T01:32:07.922Z,22.72
2018-12-31T01:33:17.134Z,22.7
2018-12-31T01:34:26.598Z,22.75
2018-12-31T01:35:35.799Z,22.75
2018-12-31T01:36:45.609Z,22.65
2018-12-31T01:37:55.124Z,22.79
2018-12-31T01:39:04.822Z,22.77
2018-12-31T01:40:14.271Z,22.76
2018-12-31T01:41:23.527Z,22.7
2018-12-31T01:42:32.971Z,22.76
2018-12-31T01:43:42.409Z,22.72
2018-12-31T01:44:51.385Z,22.73
2018-12-31T01:46:00.874Z,22.7
2018-12-31T01:47:10.059Z,22.77
2018-12-31T01:48:19.589Z,22.75
2018-12-31T01:49:28.773Z,22.67
2018-12-31T01:50:38.235Z,22.75
2018-12-31T01:51:47.178Z,22.67
2018-12-31T01:52:56.608Z,22.67
2018-12-31T01:54:06.314Z,22.72
2018-12-31T01:55:15.517Z,22.72
2018-12-31T01:56:24.950Z,22.67
2018-12-31T01:57:34.276Z,22.73
2018-12-31T01:58:43.213Z,22.72
2018-12-31T01:59:52.661Z,22.67
2018-12-31T02:01:01.600Z,22.73
2018-12-31T02:02:10.847Z,22.72
2018-12-31T02:03:20.039Z,22.67
2018-12-31T02:04:29.817Z,22.7
2018-12-31T02:05:39.590Z,22.72
2018-12-31T02:06:49.361Z,22.67
2018-12-31T02:07:58.605Z,22.68
2018-12-31T02:09:07.803Z,22.73
2018-12-31T02:10:17.735Z,22.73
2018-12-31T02:11:27.185Z,22.65
2018-12-31T02:12:36.674Z,22.68
2018-12-31T02:13:45.862Z,22.64
2018-12-31T02:14:55.637Z,22.6
2018-12-31T02:16:05.354Z,22.61
2018-12-31T02:17:14.554Z,22.72
2018-12-31T02:18:24.258Z,22.58
2018-12-31T02:19:33.506Z,22.58
2018-12-31T02:20:43.208Z,22.57
2018-12-31T02:21:52.441Z,22.6
2018-12-31T02:23:01.895Z,22.6
2018-12-31T02:24:11.397Z,22.6
2018-12-31T02:25:20.569Z,22.57
2018-12-31T02:26:30.299Z,22.7
2018-12-31T02:27:39.990Z,22.61
2018-12-31T02:28:49.697Z,22.62
2018-12-31T02:29:58.644Z,22.61
2018-12-31T02:31:08.105Z,22.6
2018-12-31T02:32:19.096Z,22.55
2018-12-31T02:33:28.567Z,22.58
2018-12-31T02:34:38.036Z,22.68
2018-12-31T02:35:47.473Z,22.6
2018-12-31T02:36:57.196Z,22.58
2018-12-31T02:38:06.375Z,22.65
2018-12-31T02:39:15.821Z,22.58
2018-12-31T02:40:25.265Z,22.65
2018-12-31T02:41:34.734Z,22.68
2018-12-31T02:42:44.169Z,22.61
2018-12-31T02:43:53.665Z,22.58
2018-12-31T02:45:02.618Z,22.54
2018-12-31T02:46:12.053Z,22.67
2018-12-31T02:47:21.765Z,22.68
2018-12-31T02:48:31.443Z,22.57
2018-12-31T02:49:40.870Z,22.62
2018-12-31T02:50:50.136Z,22.65
2018-12-31T02:51:59.849Z,22.62
2018-12-31T02:53:09.548Z,22.64
2018-12-31T02:54:19.223Z,22.55
2018-12-31T02:55:27.929Z,22.55
2018-12-31T02:56:37.627Z,22.62
2018-12-31T02:57:47.084Z,22.54
2018-12-31T02:58:56.518Z,22.64
2018-12-31T03:00:05.969Z,22.65
2018-12-31T03:01:15.415Z,22.62
2018-12-31T03:02:24.616Z,22.57
2018-12-31T03:03:34.300Z,22.61
2018-12-31T03:04:42.982Z,22.55
2018-12-31T03:05:51.937Z,22.6
2018-12-31T03:07:01.634Z,22.6
2018-12-31T03:08:11.062Z,22.51
2018-12-31T03:09:20.490Z,22.57
2018-12-31T03:10:29.976Z,22.64
2018-12-31T03:11:39.425Z,22.62
2018-12-31T03:12:48.872Z,22.57
2018-12-31T03:13:58.308Z,22.65
2018-12-31T03:15:07.751Z,22.58
2018-12-31T03:16:17.703Z,22.62
2018-12-31T03:17:27.396Z,22.54
2018-12-31T03:18:36.609Z,22.51
2018-12-31T03:19:45.820Z,22.58
2018-12-31T03:20:55.523Z,22.55
2018-12-31T03:22:04.719Z,22.6
2018-12-31T03:23:13.914Z,22.57
2018-12-31T03:24:23.632Z,22.6
2018-12-31T03:25:32.829Z,22.58
2018-12-31T03:26:42.022Z,22.52
2018-12-31T03:27:51.237Z,22.55
2018-12-31T03:29:00.701Z,22.55
2018-12-31T03:30:10.183Z,22.55
2018-12-31T03:31:19.901Z,22.61
2018-12-31T03:32:29.969Z,22.52
2018-12-31T03:33:39.442Z,22.55
2018-12-31T03:34:48.904Z,22.55
2018-12-31T03:35:58.096Z,22.54
2018-12-31T03:37:07.056Z,22.57
2018-12-31T03:38:17.033Z,22.57
2018-12-31T03:39:26.321Z,22.61
2018-12-31T03:40:35.597Z,22.52
2018-12-31T03:41:45.048Z,22.51
2018-12-31T03:42:55.058Z,22.6
2018-12-31T03:44:04.031Z,22.54
2018-12-31T03:45:13.204Z,22.57
2018-12-31T03:46:22.445Z,22.55
2018-12-31T03:47:31.385Z,22.61
2018-12-31T03:48:40.643Z,22.49
2018-12-31T03:49:50.334Z,22.55
2018-12-31T03:50:59.544Z,22.54
2018-12-31T03:52:08.724Z,22.46
2018-12-31T03:53:18.167Z,22.46
2018-12-31T03:54:27.632Z,22.57
2018-12-31T03:55:36.819Z,22.55
2018-12-31T03:56:45.763Z,22.52
2018-12-31T03:57:54.967Z,22.47
2018-12-31T03:59:05.031Z,22.45
2018-12-31T04:00:14.974Z,22.51
2018-12-31T04:01:24.658Z,22.43
2018-12-31T04:02:33.840Z,22.47
2018-12-31T04:03:43.013Z,22.39
2018-12-31T04:04:52.476Z,22.43
2018-12-31T04:06:01.673Z,22.46
2018-12-31T04:07:10.870Z,22.47
2018-12-31T04:08:20.081Z,22.43
2018-12-31T04:09:29.520Z,22.46
2018-12-31T04:10:40.126Z,22.46
2018-12-31T04:11:49.591Z,22.42
2018-12-31T04:12:59.034Z,22.46
2018-12-31T04:14:08.462Z,22.43
2018-12-31T04:15:17.639Z,22.4
2018-12-31T04:16:26.896Z,22.4
2018-12-31T04:17:36.630Z,22.46
2018-12-31T04:18:45.812Z,22.47
2018-12-31T04:19:55.267Z,22.45
2018-12-31T04:21:04.949Z,22.45
2018-12-31T04:22:13.915Z,22.43
2018-12-31T04:23:23.840Z,22.42
2018-12-31T04:24:33.798Z,22.39
2018-12-31T04:25:43.537Z,22.39
2018-12-31T04:26:53.260Z,22.4
2018-12-31T04:28:02.974Z,22.37
2018-12-31T04:29:12.141Z,22.4
2018-12-31T04:30:22.399Z,22.37
2018-12-31T04:31:31.586Z,22.4
2018-12-31T04:32:41.016Z,22.36
2018-12-31T04:33:50.693Z,22.4
2018-12-31T04:35:00.160Z,22.35
2018-12-31T04:36:09.353Z,22.37
2018-12-31T04:37:19.060Z,22.4
2018-12-31T04:38:28.485Z,22.37
2018-12-31T04:39:38.174Z,22.36
2018-12-31T04:40:47.396Z,22.43
2018-12-31T04:41:57.129Z,22.33
2018-12-31T04:43:06.462Z,22.39
2018-12-31T04:44:15.913Z,22.37
2018-12-31T04:45:25.359Z,22.35
2018-12-31T04:46:34.816Z,22.43
2018-12-31T04:47:45.075Z,22.36
2018-12-31T04:48:54.516Z,22.37
2018-12-31T04:50:03.455Z,22.43
2018-12-31T04:51:13.421Z,22.35
2018-12-31T04:52:22.349Z,22.39
2018-12-31T04:53:31.561Z,22.31
2018-12-31T04:54:41.016Z,22.39
2018-12-31T04:55:50.218Z,22.33
2018-12-31T04:56:59.403Z,22.3
2018-12-31T04:58:08.344Z,22.33
2018-12-31T04:59:18.294Z,22.31
2018-12-31T05:00:27.990Z,22.31
2018-12-31T05:01:37.227Z,22.33
2018-12-31T05:02:46.406Z,22.33
2018-12-31T05:03:56.085Z,22.36
2018-12-31T05:05:05.516Z,22.28
2018-12-31T05:06:15.191Z,22.27
2018-12-31T05:07:24.906Z,22.31
2018-12-31T05:08:34.098Z,22.25
2018-12-31T05:09:44.126Z,22.35
2018-12-31T05:10:53.627Z,22.27
2018-12-31T05:12:03.100Z,22.28
2018-12-31T05:13:12.298Z,22.28
2018-12-31T05:14:21.987Z,22.28
2018-12-31T05:15:31.192Z,22.35
2018-12-31T05:16:40.647Z,22.3
2018-12-31T05:17:49.332Z,22.28
2018-12-31T05:18:58.763Z,22.31
2018-12-31T05:20:08.207Z,22.27
2018-12-31T05:21:17.887Z,22.27
2018-12-31T05:22:27.837Z,22.25
2018-12-31T05:23:37.283Z,22.33
2018-12-31T05:24:47.209Z,22.27
2018-12-31T05:25:56.399Z,22.27
2018-12-31T05:27:05.875Z,22.33
2018-12-31T05:28:15.356Z,22.3
2018-12-31T05:29:24.560Z,22.28
2018-12-31T05:30:33.475Z,22.28
2018-12-31T05:31:42.661Z,22.3
2018-12-31T05:32:53.718Z,22.28
2018-12-31T05:34:03.373Z,22.25
2018-12-31T05:35:12.558Z,22.27
2018-12-31T05:36:22.302Z,22.25
2018-12-31T05:37:32.009Z,22.24
2018-12-31T05:38:41.440Z,22.3
2018-12-31T05:39:51.379Z,22.31
2018-12-31T05:41:00.299Z,22.31
2018-12-31T05:42:09.740Z,22.27
2018-12-31T05:43:19.198Z,22.28
2018-12-31T05:44:27.895Z,22.36
2018-12-31T05:45:37.336Z,22.3
2018-12-31T05:46:46.570Z,22.25
2018-12-31T05:47:56.028Z,22.3
2018-12-31T05:49:05.314Z,22.31
2018-12-31T05:50:14.995Z,22.22
2018-12-31T05:51:24.690Z,22.28
2018-12-31T05:52:34.421Z,22.21
2018-12-31T05:53:43.618Z,22.22
2018-12-31T05:54:53.302Z,22.22
2018-12-31T05:56:03.333Z,22.24
2018-12-31T05:57:13.045Z,22.25
2018-12-31T05:58:21.983Z,22.25
2018-12-31T05:59:31.419Z,22.27
2018-12-31T06:00:42.113Z,22.31
2018-12-31T06:01:51.963Z,22.27
2018-12-31T06:03:00.912Z,22.22
2018-12-31T06:04:09.861Z,22.28
2018-12-31T06:05:19.045Z,22.27
2018-12-31T06:06:28.735Z,22.22
2018-12-31T06:07:38.171Z,22.2
2018-12-31T06:08:47.625Z,22.2
2018-12-31T06:09:57.079Z,22.18
2018-12-31T06:11:07.250Z,22.2
2018-12-31T06:12:16.692Z,22.2
2018-12-31T06:13:25.919Z,22.2
2018-12-31T06:14:35.370Z,22.18
2018-12-31T06:15:44.805Z,22.14
2018-12-31T06:16:53.735Z,22.2
2018-12-31T06:18:03.550Z,22.17
2018-12-31T06:19:12.781Z,22.22
2018-12-31T06:20:22.221Z,22.21
2018-12-31T06:21:31.406Z,22.22
2018-12-31T06:22:41.078Z,22.18
2018-12-31T06:23:50.505Z,22.2
2018-12-31T06:24:59.744Z,22.18
2018-12-31T06:26:09.243Z,22.17
2018-12-31T06:27:18.687Z,22.24
2018-12-31T06:28:27.691Z,22.24
2018-12-31T06:29:36.899Z,22.15
2018-12-31T06:30:45.842Z,22.2
2018-12-31T06:31:55.270Z,22.18
2018-12-31T06:33:04.747Z,22.22
2018-12-31T06:34:13.933Z,22.2
2018-12-31T06:35:23.403Z,22.2
2018-12-31T06:36:33.100Z,22.21
2018-12-31T06:37:42.825Z,22.21
2018-12-31T06:38:51.830Z,22.12
2018-12-31T06:40:01.269Z,22.18
2018-12-31T06:41:10.214Z,22.21
2018-12-31T06:42:19.400Z,22.22
2018-12-31T06:43:28.844Z,22.2
2018-12-31T06:44:38.783Z,22.2
2018-12-31T06:45:48.482Z,22.18
2018-12-31T06:46:58.400Z,22.21
2018-12-31T06:48:07.839Z,22.1
2018-12-31T06:49:17.526Z,22.14
2018-12-31T06:50:27.213Z,22.21
2018-12-31T06:51:36.933Z,22.22
2018-12-31T06:52:46.457Z,22.27
2018-12-31T06:53:55.898Z,22.22
2018-12-31T06:55:05.073Z,22.18
2018-12-31T06:56:14.770Z,22.18
2018-12-31T06:57:23.940Z,22.21
2018-12-31T06:58:33.642Z,22.1
2018-12-31T06:59:42.590Z,22.2
2018-12-31T07:00:52.304Z,22.07
2018-12-31T07:02:01.754Z,22.1
2018-12-31T07:03:11.199Z,22.14
2018-12-31T07:04:20.643Z,22.18
2018-12-31T07:05:30.099Z,22.17
2018-12-31T07:06:39.793Z,22.06
2018-12-31T07:07:48.977Z,22.15
2018-12-31T07:08:58.412Z,22.09
2018-12-31T07:10:08.098Z,22.05
2018-12-31T07:11:17.528Z,22.07
2018-12-31T07:12:26.706Z,22.09
2018-12-31T07:13:36.407Z,22
2018-12-31T07:14:46.124Z,22.07
2018-12-31T07:15:55.563Z,22.05
2018-12-31T07:17:04.751Z,22.09
2018-12-31T07:18:13.933Z,22.12
2018-12-31T07:19:23.628Z,22
2018-12-31T07:20:32.570Z,22.07
2018-12-31T07:21:42.586Z,22.06
2018-12-31T07:22:51.803Z,22.12
2018-12-31T07:24:01.006Z,22.09
2018-12-31T07:25:10.701Z,22.06
2018-12-31T07:26:19.889Z,22.07
2018-12-31T07:27:29.333Z,22
2018-12-31T07:28:38.515Z,22.06
2018-12-31T07:29:48.213Z,22.09
2018-12-31T07:30:57.891Z,22.12
2018-12-31T07:32:07.649Z,22.14
2018-12-31T07:33:17.092Z,22.07
2018-12-31T07:34:26.304Z,22.05
2018-12-31T07:35:35.730Z,22.12
2018-12-31T07:36:44.920Z,22.02
2018-12-31T07:37:54.091Z,22.05
2018-12-31T07:39:03.315Z,22
2018-12-31T07:40:12.756Z,22.12
2018-12-31T07:41:21.951Z,22.06
2018-12-31T07:42:31.377Z,22.07
2018-12-31T07:43:40.575Z,22.09
2018-12-31T07:44:50.021Z,22.03
2018-12-31T07:45:59.487Z,22.05
2018-12-31T07:47:08.949Z,22.05
2018-12-31T07:48:18.204Z,22.1
2018-12-31T07:49:27.647Z,22.09
2018-12-31T07:50:37.336Z,21.98
2018-12-31T07:51:46.516Z,22.1
2018-12-31T07:52:55.727Z,22.09
2018-12-31T07:54:04.939Z,22.1
2018-12-31T07:55:14.114Z,22.12
2018-12-31T07:56:24.052Z,22.06
2018-12-31T07:57:33.232Z,22.09
2018-12-31T07:58:42.675Z,22.05
2018-12-31T07:59:52.132Z,22.02
2018-12-31T08:01:01.058Z,22.05
2018-12-31T08:02:10.523Z,22
2018-12-31T08:03:19.690Z,21.94
2018-12-31T08:04:28.896Z,22.06
2018-12-31T08:05:38.086Z,22.05
2018-12-31T08:06:47.077Z,21.99
2018-12-31T08:07:56.262Z,21.99
2018-12-31T08:09:05.707Z,21.98
2018-12-31T08:10:14.959Z,22.1
2018-12-31T08:11:24.644Z,22.1
2018-12-31T08:12:33.921Z,22.06
2018-12-31T08:13:43.428Z,21.98
2018-12-31T08:14:53.357Z,21.96
2018-12-31T08:16:02.532Z,21.98
2018-12-31T08:17:12.258Z,22.06
2018-12-31T08:18:21.194Z,22.03
2018-12-31T08:19:30.869Z,22.12
2018-12-31T08:20:40.067Z,22.05
2018-12-31T08:21:49.773Z,22.09
2018-12-31T08:22:58.950Z,21.96
2018-12-31T08:24:08.424Z,21.99
2018-12-31T08:25:17.357Z,21.98
2018-12-31T08:26:26.801Z,22.07
2018-12-31T08:27:36.498Z,21.98
2018-12-31T08:28:45.697Z,22.06
2018-12-31T08:29:55.410Z,22.03
2018-12-31T08:31:04.842Z,22.06
2018-12-31T08:32:14.037Z,22
2018-12-31T08:33:23.767Z,21.99
2018-12-31T08:34:33.456Z,22.06
2018-12-31T08:35:43.136Z,22.06
2018-12-31T08:36:52.822Z,22.06
2018-12-31T08:38:02.005Z,22.12
2018-12-31T08:39:11.708Z,22
2018-12-31T08:40:21.429Z,22
2018-12-31T08:41:30.613Z,22.05
2018-12-31T08:42:40.079Z,21.98
2018-12-31T08:43:49.518Z,21.99
2018-12-31T08:44:58.215Z,21.99
2018-12-31T08:46:07.893Z,22.06
2018-12-31T08:47:17.315Z,21.99
2018-12-31T08:48:26.750Z,21.98
2018-12-31T08:49:36.185Z,21.96
2018-12-31T08:50:45.877Z,22.05
2018-12-31T08:51:54.598Z,22
2018-12-31T08:53:04.611Z,21.99
2018-12-31T08:54:13.846Z,22.02
2018-12-31T08:55:23.372Z,21.92
2018-12-31T08:56:32.801Z,22.05
2018-12-31T08:57:42.232Z,22.02
2018-12-31T08:58:51.668Z,21.96
2018-12-31T09:00:01.178Z,22
2018-12-31T09:01:10.360Z,21.98
2018-12-31T09:02:19.803Z,21.98
2018-12-31T09:03:28.745Z,21.94
2018-12-31T09:04:37.671Z,22
2018-12-31T09:05:47.113Z,21.98
2018-12-31T09:06:56.306Z,21.96
2018-12-31T09:08:05.491Z,22
2018-12-31T09:09:14.661Z,21.94
2018-12-31T09:10:24.425Z,21.98
2018-12-31T09:11:33.855Z,21.94
2018-12-31T09:12:43.071Z,21.91
2018-12-31T09:13:52.008Z,21.96
2018-12-31T09:15:00.952Z,21.96
2018-12-31T09:16:10.650Z,21.92
2018-12-31T09:17:20.094Z,21.98
2018-12-31T09:18:29.031Z,22.03
2018-12-31T09:19:38.720Z,21.96
2018-12-31T09:20:47.918Z,21.98
2018-12-31T09:21:57.333Z,22.02
2018-12-31T09:23:06.536Z,21.91
2018-12-31T09:24:15.973Z,21.96
2018-12-31T09:25:25.395Z,22
2018-12-31T09:26:35.077Z,22.02
2018-12-31T09:27:43.782Z,21.96
2018-12-31T09:28:52.980Z,21.92
2018-12-31T09:30:02.918Z,21.94
2018-12-31T09:31:12.717Z,22.03
2018-12-31T09:32:22.156Z,21.94
2018-12-31T09:33:31.758Z,21.96
2018-12-31T09:34:40.960Z,21.98
2018-12-31T09:35:50.637Z,21.98
2018-12-31T09:37:00.135Z,21.92
2018-12-31T09:38:09.570Z,21.94
2018-12-31T09:39:19.293Z,21.94
2018-12-31T09:40:29.046Z,21.96
2018-12-31T09:41:38.994Z,21.98
2018-12-31T09:42:48.428Z,21.98
2018-12-31T09:43:57.758Z,21.96
2018-12-31T09:45:06.931Z,21.99
2018-12-31T09:46:16.349Z,21.98
2018-12-31T09:47:25.808Z,21.99
2018-12-31T09:48:35.262Z,21.96
2018-12-31T09:49:44.716Z,21.99
2018-12-31T09:50:54.178Z,21.96
2018-12-31T09:52:03.395Z,22
2018-12-31T09:53:12.826Z,21.94
2018-12-31T09:54:22.027Z,21.98
2018-12-31T09:55:31.460Z,21.98
2018-12-31T09:56:40.650Z,21.96
2018-12-31T09:57:50.090Z,21.96
2018-12-31T09:58:59.525Z,21.96
2018-12-31T10:00:09.213Z,21.99
2018-12-31T10:01:18.905Z,21.98
2018-12-31T10:02:27.865Z,21.96
2018-12-31T10:03:36.815Z,21.99
2018-12-31T10:04:46.011Z,21.99
2018-12-31T10:05:55.427Z,22
2018-12-31T10:07:04.861Z,22.02
2018-12-31T10:08:14.396Z,21.94
2018-12-31T10:09:24.192Z,21.99
2018-12-31T10:10:33.412Z,21.94
2018-12-31T10:11:42.426Z,21.98
2018-12-31T10:12:51.871Z,21.94
2018-12-31T10:14:01.559Z,22.06
2018-12-31T10:15:10.756Z,22.05
2018-12-31T10:16:20.475Z,21.92
2018-12-31T10:17:29.667Z,21.92
2018-12-31T10:18:38.617Z,21.94
2018-12-31T10:19:47.805Z,21.92
2018-12-31T10:20:57.508Z,21.98
2018-12-31T10:22:06.943Z,21.99
2018-12-31T10:23:16.139Z,21.94
2018-12-31T10:24:25.834Z,21.94
2018-12-31T10:25:35.027Z,21.96
2018-12-31T10:26:44.468Z,21.98
2018-12-31T10:27:53.652Z,21.96
2018-12-31T10:29:03.623Z,21.99
2018-12-31T10:30:12.817Z,21.98
2018-12-31T10:31:22.321Z,21.98
2018-12-31T10:32:31.263Z,21.98
2018-12-31T10:33:40.300Z,21.91
2018-12-31T10:34:49.267Z,22.02
2018-12-31T10:35:58.719Z,21.98
2018-12-31T10:37:07.928Z,21.94
2018-12-31T10:38:17.353Z,21.96
2018-12-31T10:39:26.540Z,21.98
2018-12-31T10:40:35.732Z,21.99
2018-12-31T10:41:44.988Z,21.99
2018-12-31T10:42:54.223Z,22.06
2018-12-31T10:44:03.699Z,21.98
2018-12-31T10:45:12.889Z,22.03
2018-12-31T10:46:22.322Z,21.99
2018-12-31T10:47:31.529Z,21.96
2018-12-31T10:48:40.727Z,21.98
2018-12-31T10:49:49.931Z,21.99
2018-12-31T10:50:59.651Z,21.98
2018-12-31T10:52:10.478Z,21.94
2018-12-31T10:53:19.933Z,21.92
2018-12-31T10:54:29.433Z,21.98
2018-12-31T10:55:38.668Z,21.96
2018-12-31T10:56:47.616Z,21.96
2018-12-31T10:57:56.554Z,22
2018-12-31T10:59:06.014Z,21.94
2018-12-31T11:00:15.221Z,22.03
2018-12-31T11:01:24.171Z,21.99
2018-12-31T11:02:33.972Z,21.91
2018-12-31T11:03:44.492Z,21.94
2018-12-31T11:04:54.198Z,21.99
2018-12-31T11:06:03.392Z,22.05
2018-12-31T11:07:12.319Z,21.98
2018-12-31T11:08:22.007Z,22
2018-12-31T11:09:31.482Z,22
2018-12-31T11:10:40.960Z,21.96
2018-12-31T11:11:50.651Z,21.99
2018-12-31T11:13:00.073Z,21.94
2018-12-31T11:14:09.520Z,21.9
2018-12-31T11:15:20.021Z,22.02
2018-12-31T11:16:29.714Z,21.99
2018-12-31T11:17:39.189Z,21.99
2018-12-31T11:18:48.125Z,22
2018-12-31T11:19:57.813Z,22.03
2018-12-31T11:21:07.019Z,21.96
2018-12-31T11:22:16.300Z,21.98
2018-12-31T11:23:25.870Z,22.05
2018-12-31T11:25:08.594Z,22.2
2018-12-31T11:26:17.779Z,22.27
2018-12-31T11:27:27.467Z,22.27
2018-12-31T11:28:36.890Z,22.36
2018-12-31T11:29:46.820Z,22.46
2018-12-31T11:30:56.604Z,22.55
2018-12-31T11:32:05.631Z,22.62
2018-12-31T11:33:15.057Z,22.55
2018-12-31T11:34:24.511Z,22.77
2018-12-31T11:35:34.451Z,22.82
2018-12-31T11:36:43.911Z,22.92
2018-12-31T11:37:52.974Z,22.97
2018-12-31T11:39:02.085Z,23.02
2018-12-31T11:40:11.289Z,23.1
2018-12-31T11:41:21.220Z,23.04
2018-12-31T11:42:30.958Z,23.16
2018-12-31T11:43:40.153Z,23.2
2018-12-31T11:44:50.283Z,23.22
2018-12-31T11:45:59.528Z,23.28
2018-12-31T11:47:09.620Z,23.4
2018-12-31T11:48:20.403Z,23.35
2018-12-31T11:49:29.860Z,23.42
2018-12-31T11:50:39.632Z,23.48
2018-12-31T11:51:48.657Z,23.54
2018-12-31T11:52:57.911Z,23.57
2018-12-31T11:54:07.360Z,23.65
2018-12-31T11:55:16.855Z,23.68
2018-12-31T11:56:26.856Z,23.68
2018-12-31T11:57:36.426Z,23.8
2018-12-31T11:58:46.418Z,23.78
2018-12-31T11:59:57.192Z,23.76
2018-12-31T12:01:06.934Z,23.88
2018-12-31T12:02:23.424Z,23.87
2018-12-31T12:03:33.764Z,23.93
2018-12-31T12:04:42.882Z,23.9
2018-12-31T12:05:52.875Z,23.87
2018-12-31T12:07:02.161Z,23.93
2018-12-31T12:08:11.385Z,23.88
2018-12-31T12:09:21.057Z,23.98
2018-12-31T12:10:30.278Z,24.03
2018-12-31T12:11:39.784Z,24.06
2018-12-31T12:12:48.886Z,24.13
2018-12-31T12:13:58.851Z,24.13
2018-12-31T12:15:08.317Z,24.18
2018-12-31T12:16:17.834Z,24.21
2018-12-31T12:17:26.784Z,24.2
2018-12-31T12:18:36.024Z,24.24
2018-12-31T12:19:45.305Z,24.31
2018-12-31T12:20:55.038Z,24.3
2018-12-31T12:22:04.504Z,24.25
2018-12-31T12:23:14.221Z,24.22
2018-12-31T12:24:23.707Z,24.21
2018-12-31T12:25:33.415Z,24.24
2018-12-31T12:26:43.356Z,24.16
2018-12-31T12:27:52.920Z,24.15
2018-12-31T12:29:02.773Z,24.09
2018-12-31T12:30:12.609Z,24.13
2018-12-31T12:31:23.486Z,24.13
2018-12-31T12:32:32.592Z,24.12
2018-12-31T12:33:43.042Z,24.13
2018-12-31T12:34:52.522Z,24.15
2018-12-31T12:36:02.388Z,24.2
2018-12-31T12:37:11.878Z,24.02
2018-12-31T12:38:21.590Z,23.94
2018-12-31T12:39:30.365Z,24.1
2018-12-31T12:40:39.616Z,24.13
2018-12-31T12:41:49.091Z,24.16
2018-12-31T12:42:58.589Z,24.05
2018-12-31T12:44:07.860Z,24.18
2018-12-31T12:45:17.102Z,24.06
2018-12-31T12:46:26.080Z,24.09
2018-12-31T12:47:35.295Z,24.21
2018-12-31T12:48:44.527Z,24.24
2018-12-31T12:49:53.506Z,24.27
2018-12-31T12:51:02.758Z,24.32
2018-12-31T12:52:12.490Z,24.31
2018-12-31T12:53:22.289Z,24.4
2018-12-31T12:54:32.871Z,24.37
2018-12-31T12:55:42.697Z,24.45
2018-12-31T12:56:52.697Z,24.37
2018-12-31T12:58:01.989Z,24.46
2018-12-31T12:59:11.210Z,24.47
2018-12-31T13:00:21.036Z,24.46
2018-12-31T13:01:30.040Z,24.49
2018-12-31T13:02:40.076Z,24.49
2018-12-31T13:03:49.553Z,24.6
2018-12-31T13:05:05.918Z,24.55
2018-12-31T13:06:16.217Z,24.58
2018-12-31T13:07:26.474Z,24.61
2018-12-31T13:08:36.693Z,24.67
2018-12-31T13:09:46.439Z,24.69
2018-12-31T13:10:56.169Z,24.61
2018-12-31T13:12:05.942Z,24.65
2018-12-31T13:13:15.429Z,24.57
2018-12-31T13:14:24.666Z,24.57
2018-12-31T13:15:33.400Z,24.6
2018-12-31T13:16:42.625Z,24.6
2018-12-31T13:17:51.878Z,24.57
2018-12-31T13:19:01.112Z,24.52
2018-12-31T13:20:10.081Z,24.52
2018-12-31T13:21:19.552Z,24.47
2018-12-31T13:22:29.563Z,24.46
2018-12-31T13:23:39.018Z,24.4
2018-12-31T13:24:48.564Z,24.43
2018-12-31T13:25:58.340Z,24.52
2018-12-31T13:27:07.197Z,24.45
2018-12-31T13:28:17.154Z,24.5
2018-12-31T13:29:26.867Z,24.5
2018-12-31T13:30:38.258Z,24.58
2018-12-31T13:31:48.033Z,24.53
2018-12-31T13:32:57.132Z,24.67
2018-12-31T13:34:06.892Z,24.6
2018-12-31T13:35:16.136Z,24.62
2018-12-31T13:36:25.306Z,24.69
2018-12-31T13:37:34.558Z,24.69
2018-12-31T13:38:43.524Z,24.78
2018-12-31T13:39:53.330Z,24.77
2018-12-31T13:41:03.108Z,24.78
2018-12-31T13:42:12.130Z,24.77
2018-12-31T13:43:21.370Z,24.76
2018-12-31T13:44:31.108Z,24.81
2018-12-31T13:45:40.862Z,24.81
2018-12-31T13:46:50.768Z,24.81
2018-12-31T13:48:00.861Z,24.78
2018-12-31T13:49:11.657Z,24.8
2018-12-31T13:50:22.006Z,24.8
2018-12-31T13:51:32.010Z,24.81
2018-12-31T13:52:41.244Z,24.88
2018-12-31T13:53:50.226Z,24.8
2018-12-31T13:54:59.199Z,24.91
2018-12-31T13:56:08.937Z,24.8
2018-12-31T13:57:18.180Z,24.81
2018-12-31T13:58:27.429Z,24.83
2018-12-31T13:59:36.947Z,24.81
2018-12-31T14:00:46.185Z,24.78
2018-12-31T14:01:55.690Z,24.83
2018-12-31T14:03:05.155Z,24.78
2018-12-31T14:04:22.204Z,24.83
2018-12-31T14:05:31.920Z,24.88
2018-12-31T14:06:41.680Z,24.83
2018-12-31T14:07:52.354Z,24.77
2018-12-31T14:09:01.374Z,24.81
2018-12-31T14:10:11.085Z,24.81
2018-12-31T14:11:20.636Z,24.83
2018-12-31T14:12:30.111Z,24.71
2018-12-31T14:13:39.415Z,24.78
2018-12-31T14:14:49.804Z,24.78
2018-12-31T14:15:59.530Z,24.76
2018-12-31T14:17:08.878Z,24.76
2018-12-31T14:18:18.580Z,24.69
2018-12-31T14:19:28.663Z,24.76
2018-12-31T14:20:38.567Z,24.73
2018-12-31T14:21:49.122Z,24.65
2018-12-31T14:22:59.133Z,24.68
2018-12-31T14:24:09.007Z,24.67
2018-12-31T14:25:19.019Z,24.64
2018-12-31T14:26:28.571Z,24.6
2018-12-31T14:27:38.674Z,24.52
2018-12-31T14:28:48.458Z,24.58
2018-12-31T14:29:58.164Z,24.49
2018-12-31T14:31:07.641Z,24.5
2018-12-31T14:32:16.707Z,24.58
2018-12-31T14:33:25.938Z,24.58
2018-12-31T14:34:35.942Z,24.47
2018-12-31T14:35:50.405Z,24.46
2018-12-31T14:36:59.644Z,24.46
2018-12-31T14:38:09.177Z,24.42
2018-12-31T14:39:18.734Z,24.49
2018-12-31T14:40:27.780Z,24.47
2018-12-31T14:41:37.047Z,24.28
2018-12-31T14:42:47.090Z,24.27
2018-12-31T14:43:56.418Z,24.43
2018-12-31T14:45:05.980Z,24.31
2018-12-31T14:46:15.498Z,24.43
2018-12-31T14:47:25.217Z,24.3
2018-12-31T14:48:34.208Z,24.31
2018-12-31T14:49:44.273Z,24.35
2018-12-31T14:50:53.759Z,24.32
2018-12-31T14:52:02.970Z,24.32
2018-12-31T14:53:11.992Z,24.27
2018-12-31T14:54:21.553Z,24.28
2018-12-31T14:55:31.030Z,24.21
2018-12-31T14:56:40.534Z,24.2
2018-12-31T14:57:50.105Z,24.21
2018-12-31T14:58:59.316Z,24.08
2018-12-31T15:00:08.692Z,24.12
2018-12-31T15:01:18.901Z,24.21